createdAt,value
2022-12-31T00:00:15.336Z,3.40
2022-12-31T00:02:42.384Z,3.40
2022-12-31T00:05:09.903Z,3.40
2022-12-31T00:10:04.142Z,3.40
2022-12-31T00:12:31.162Z,3.40
2022-12-31T00:14:58.361Z,3.40
2022-12-31T00:17:25.406Z,3.40
2022-12-31T00:19:52.342Z,3.40
2022-12-31T00:22:19.239Z,3.40
2022-12-31T00:24:46.315Z,3.40
2022-12-31T00:27:13.291Z,3.30
2022-12-31T00:29:40.255Z,3.30
2022-12-31T00:32:07.166Z,3.30
2022-12-31T00:34:34.105Z,3.30
2022-12-31T00:37:01.016Z,3.30
2022-12-31T00:39:28.033Z,3.40
2022-12-31T00:41:54.983Z,3.40
2022-12-31T00:44:22.065Z,3.40
2022-12-31T00:46:49.025Z,3.40
2022-12-31T00:49:16.633Z,3.30
2022-12-31T00:51:43.775Z,3.20
2022-12-31T00:54:10.781Z,3.10
2022-12-31T00:56:37.896Z,3.10
2022-12-31T00:59:04.861Z,3.10
2022-12-31T01:01:37.461Z,3.00
2022-12-31T01:04:07.379Z,3.00
2022-12-31T01:06:34.762Z,3.00
2022-12-31T01:09:01.915Z,2.90
2022-12-31T01:11:31.953Z,2.90
2022-12-31T01:14:03.533Z,2.80
2022-12-31T01:16:39.546Z,2.80
2022-12-31T01:19:10.163Z,2.80
2022-12-31T01:21:39.727Z,2.80
2022-12-31T01:24:07.751Z,2.70
2022-12-31T01:26:35.094Z,2.70
2022-12-31T01:29:02.047Z,2.70
2022-12-31T01:31:29.008Z,2.60
2022-12-31T01:33:56.050Z,2.60
2022-12-31T01:36:26.417Z,2.60
2022-12-31T01:38:55.285Z,2.60
2022-12-31T01:41:25.577Z,2.60
2022-12-31T01:43:58.848Z,2.70
2022-12-31T01:46:43.929Z,2.70
2022-12-31T01:49:29.471Z,2.60
2022-12-31T01:52:02.283Z,2.60
2022-12-31T01:54:33.643Z,2.60
2022-12-31T01:57:01.550Z,2.60
2022-12-31T01:59:29.927Z,2.60
2022-12-31T02:01:57.166Z,2.60
2022-12-31T02:04:26.653Z,2.60
2022-12-31T02:06:59.123Z,2.50
2022-12-31T02:09:26.314Z,2.50
2022-12-31T02:11:53.292Z,2.50
2022-12-31T02:14:35.417Z,2.60
2022-12-31T02:17:14.221Z,2.50
2022-12-31T02:20:04.705Z,2.50
2022-12-31T02:22:37.453Z,2.50
2022-12-31T02:25:25.711Z,2.50
2022-12-31T02:28:30.043Z,2.50
2022-12-31T02:31:04.520Z,2.40
2022-12-31T02:33:44.555Z,2.50
2022-12-31T02:36:22.680Z,2.50
2022-12-31T02:38:50.488Z,2.50
2022-12-31T02:41:38.367Z,2.50
2022-12-31T02:44:28.895Z,2.50
2022-12-31T02:50:02.052Z,2.50
2022-12-31T02:52:46.910Z,2.50
2022-12-31T02:55:32.248Z,2.50
2022-12-31T02:58:22.843Z,2.40
2022-12-31T03:01:12.703Z,2.40
2022-12-31T03:03:40.454Z,2.40
2022-12-31T03:06:09.168Z,2.50
2022-12-31T03:08:56.335Z,2.50
2022-12-31T03:11:42.155Z,2.50
2022-12-31T03:14:09.123Z,2.50
2022-12-31T03:16:36.143Z,2.50
2022-12-31T03:19:21.861Z,2.50
2022-12-31T03:22:07.923Z,2.50
2022-12-31T03:24:53.171Z,2.50
2022-12-31T03:27:20.110Z,2.60
2022-12-31T03:29:47.041Z,2.50
2022-12-31T03:32:14.008Z,2.50
2022-12-31T03:34:40.914Z,2.40
2022-12-31T03:37:08.009Z,2.40
2022-12-31T03:39:35.119Z,2.40
2022-12-31T03:42:02.139Z,2.40
2022-12-31T03:44:29.133Z,2.50
2022-12-31T03:47:07.607Z,2.40
2022-12-31T03:49:34.606Z,2.40
2022-12-31T03:52:03.176Z,2.50
2022-12-31T03:54:30.140Z,2.50
2022-12-31T03:57:00.204Z,2.50
2022-12-31T03:59:27.445Z,2.50
2022-12-31T04:01:54.891Z,2.40
2022-12-31T04:04:22.047Z,2.50
2022-12-31T04:06:49.012Z,2.50
2022-12-31T04:09:15.996Z,2.50
2022-12-31T04:11:42.993Z,2.50
2022-12-31T04:14:09.952Z,2.50
2022-12-31T04:16:36.910Z,2.50
2022-12-31T04:19:04.036Z,2.50
2022-12-31T04:21:35.029Z,2.50
2022-12-31T04:24:03.258Z,2.40
2022-12-31T04:26:30.661Z,2.50
2022-12-31T04:28:57.702Z,2.40
2022-12-31T04:31:24.791Z,2.40
2022-12-31T04:33:51.801Z,2.40
2022-12-31T04:36:18.847Z,2.40
2022-12-31T04:38:45.806Z,2.40
2022-12-31T04:41:19.001Z,2.30
2022-12-31T04:43:51.815Z,2.30
2022-12-31T04:46:21.874Z,2.30
2022-12-31T04:48:48.943Z,2.40
2022-12-31T04:51:16.149Z,2.40
2022-12-31T04:53:43.157Z,2.40
2022-12-31T04:56:10.126Z,2.50
2022-12-31T04:58:38.356Z,2.40
2022-12-31T05:01:06.306Z,2.40
2022-12-31T05:03:33.917Z,2.40
2022-12-31T05:06:03.201Z,2.40
2022-12-31T05:08:31.001Z,2.40
2022-12-31T05:11:01.453Z,2.40
2022-12-31T05:13:33.112Z,2.40
2022-12-31T05:16:01.307Z,2.50
2022-12-31T05:18:28.801Z,2.50
2022-12-31T05:20:56.030Z,2.50
2022-12-31T05:23:23.629Z,2.50
2022-12-31T05:25:51.007Z,2.50
2022-12-31T05:28:18.791Z,2.50
2022-12-31T05:30:49.322Z,2.60
2022-12-31T05:33:16.886Z,2.60
2022-12-31T05:35:43.850Z,2.60
2022-12-31T05:38:11.015Z,2.60
2022-12-31T05:40:37.956Z,2.70
2022-12-31T05:43:04.903Z,2.70
2022-12-31T05:45:31.861Z,2.80
2022-12-31T05:47:58.909Z,2.70
2022-12-31T05:50:25.955Z,2.70
2022-12-31T05:52:52.900Z,2.80
2022-12-31T05:55:19.831Z,2.80
2022-12-31T05:57:46.868Z,2.80
2022-12-31T06:00:14.590Z,2.80
2022-12-31T06:02:41.733Z,2.80
2022-12-31T06:05:09.331Z,2.80
2022-12-31T06:07:36.335Z,2.90
2022-12-31T06:10:03.472Z,2.90
2022-12-31T06:12:30.571Z,2.90
2022-12-31T06:14:57.628Z,2.90
2022-12-31T06:17:24.643Z,2.90
2022-12-31T06:19:51.701Z,2.90
2022-12-31T06:22:18.710Z,3.00
2022-12-31T06:24:45.724Z,3.10
2022-12-31T06:27:13.391Z,3.10
2022-12-31T06:29:40.344Z,3.20
2022-12-31T06:32:07.432Z,3.20
2022-12-31T06:34:34.516Z,3.20
2022-12-31T06:37:01.427Z,3.30
2022-12-31T06:39:28.459Z,3.40
2022-12-31T06:41:55.548Z,3.40
2022-12-31T06:44:22.911Z,3.50
2022-12-31T06:46:51.207Z,3.50
2022-12-31T06:49:18.369Z,3.50
2022-12-31T06:51:46.319Z,3.50
2022-12-31T06:54:13.838Z,3.50
2022-12-31T06:56:41.715Z,3.50
2022-12-31T06:59:26.795Z,3.60
2022-12-31T07:02:26.042Z,3.60
2022-12-31T07:04:58.553Z,3.60
2022-12-31T07:07:28.522Z,3.60
2022-12-31T07:10:06.976Z,3.60
2022-12-31T07:12:43.095Z,3.60
2022-12-31T07:15:36.774Z,3.60
2022-12-31T07:18:14.870Z,3.70
2022-12-31T07:20:42.223Z,3.70
2022-12-31T07:23:09.548Z,3.70
2022-12-31T07:25:40.059Z,3.70
2022-12-31T07:28:06.979Z,3.80
2022-12-31T07:31:01.914Z,3.80
2022-12-31T07:33:37.730Z,3.80
2022-12-31T07:36:18.139Z,3.80
2022-12-31T07:38:57.250Z,3.80
2022-12-31T07:41:54.701Z,3.90
2022-12-31T07:44:24.387Z,3.90
2022-12-31T07:47:02.061Z,3.90
2022-12-31T07:49:30.767Z,3.90
2022-12-31T07:51:58.072Z,3.90
2022-12-31T07:54:25.359Z,3.90
2022-12-31T07:56:52.602Z,3.90
2022-12-31T07:59:28.829Z,3.90
2022-12-31T08:02:20.495Z,3.90
2022-12-31T08:05:14.774Z,3.90
2022-12-31T08:08:15.732Z,3.90
2022-12-31T08:11:19.884Z,3.90
2022-12-31T08:13:47.497Z,3.80
2022-12-31T08:16:14.905Z,3.80
2022-12-31T08:18:42.143Z,3.70
2022-12-31T08:21:18.146Z,3.70
2022-12-31T08:23:50.125Z,3.70
2022-12-31T08:26:35.958Z,3.70
2022-12-31T08:29:10.975Z,3.70
2022-12-31T08:32:09.950Z,3.70
2022-12-31T08:34:55.852Z,3.70
2022-12-31T08:37:32.098Z,3.70
2022-12-31T08:40:17.960Z,3.70
2022-12-31T08:43:23.526Z,3.80
2022-12-31T08:45:53.095Z,3.80
2022-12-31T08:48:31.102Z,3.80
2022-12-31T08:50:58.748Z,3.80
2022-12-31T08:53:26.231Z,3.80
2022-12-31T08:56:00.834Z,3.80
2022-12-31T08:58:27.755Z,3.80
2022-12-31T09:00:57.886Z,3.80
2022-12-31T09:03:56.481Z,3.80
2022-12-31T09:06:31.792Z,3.80
2022-12-31T09:09:20.490Z,3.90
2022-12-31T09:12:11.381Z,3.90
2022-12-31T09:14:51.959Z,3.90
2022-12-31T09:17:41.612Z,3.90
2022-12-31T09:20:15.428Z,3.90
2022-12-31T09:22:42.791Z,3.90
2022-12-31T09:25:15.121Z,4.00
2022-12-31T09:28:00.631Z,4.00
2022-12-31T09:30:31.041Z,4.00
2022-12-31T09:33:03.886Z,4.00
2022-12-31T09:35:52.878Z,4.00
2022-12-31T09:38:27.727Z,4.00
2022-12-31T09:41:23.840Z,4.00
2022-12-31T09:44:29.258Z,4.00
2022-12-31T09:47:05.308Z,4.10
2022-12-31T09:50:02.361Z,4.10
2022-12-31T09:53:01.642Z,4.10
2022-12-31T09:55:37.399Z,4.10
2022-12-31T09:58:22.296Z,4.10
2022-12-31T10:01:10.811Z,4.10
2022-12-31T10:03:59.902Z,4.10
2022-12-31T10:06:51.938Z,4.10
2022-12-31T10:09:42.104Z,4.10
2022-12-31T10:12:50.195Z,4.10
2022-12-31T10:15:38.930Z,4.10
2022-12-31T10:18:42.942Z,4.20
2022-12-31T10:21:28.513Z,4.20
2022-12-31T10:24:20.297Z,4.20
2022-12-31T10:26:59.729Z,4.20
2022-12-31T10:29:45.395Z,4.30
2022-12-31T10:32:31.652Z,4.30
2022-12-31T10:35:11.747Z,4.30
2022-12-31T10:37:57.852Z,4.30
2022-12-31T10:41:02.053Z,4.30
2022-12-31T10:44:01.320Z,4.40
2022-12-31T10:46:39.961Z,4.40
2022-12-31T10:49:16.053Z,4.40
2022-12-31T10:52:13.592Z,4.40
2022-12-31T10:55:04.604Z,4.40
2022-12-31T10:57:50.049Z,4.40
2022-12-31T11:00:21.092Z,4.40
2022-12-31T11:03:29.521Z,4.50
2022-12-31T11:06:16.434Z,4.50
2022-12-31T11:09:05.318Z,4.50
2022-12-31T11:11:53.348Z,4.60
2022-12-31T11:14:46.204Z,4.50
2022-12-31T11:17:38.146Z,4.60
2022-12-31T11:20:23.854Z,4.60
2022-12-31T11:22:56.871Z,4.60
2022-12-31T11:25:45.029Z,4.60
2022-12-31T11:28:30.619Z,4.70
2022-12-31T11:31:03.372Z,4.70
2022-12-31T11:33:51.524Z,4.70
2022-12-31T11:36:37.591Z,4.70
2022-12-31T11:39:32.246Z,4.70
2022-12-31T11:42:17.222Z,4.70
2022-12-31T11:45:00.140Z,4.70
2022-12-31T11:48:29.686Z,4.70
2022-12-31T11:51:15.751Z,4.80
2022-12-31T11:54:10.505Z,4.70
2022-12-31T11:56:53.829Z,4.70
2022-12-31T11:59:21.999Z,4.70
2022-12-31T12:02:16.570Z,4.80
2022-12-31T12:04:44.694Z,4.70
2022-12-31T12:07:16.432Z,4.70
2022-12-31T12:09:44.669Z,4.80
2022-12-31T12:12:12.329Z,4.80
2022-12-31T12:14:42.555Z,4.80
2022-12-31T12:17:32.338Z,4.80
2022-12-31T12:20:13.182Z,4.80
2022-12-31T12:22:53.122Z,4.80
2022-12-31T12:25:23.621Z,4.80
2022-12-31T12:27:50.657Z,4.90
2022-12-31T12:30:22.558Z,4.90
2022-12-31T12:33:01.922Z,4.90
2022-12-31T12:35:34.860Z,4.90
2022-12-31T12:38:04.959Z,4.90
2022-12-31T12:40:34.598Z,4.90
2022-12-31T12:43:03.123Z,4.90
2022-12-31T12:45:46.374Z,4.80
2022-12-31T12:48:38.935Z,4.80
2022-12-31T12:51:56.462Z,4.80
2022-12-31T12:55:00.312Z,4.90
2022-12-31T12:57:54.163Z,4.80
2022-12-31T13:00:22.409Z,4.80
2022-12-31T13:03:26.874Z,4.80
2022-12-31T13:06:21.461Z,4.80
2022-12-31T13:09:03.273Z,4.90
2022-12-31T13:11:30.217Z,4.90
2022-12-31T13:14:03.116Z,4.80
2022-12-31T13:16:35.592Z,4.90
2022-12-31T13:19:48.918Z,4.80
2022-12-31T13:22:42.381Z,4.90
2022-12-31T13:25:30.404Z,4.90
2022-12-31T13:28:02.974Z,4.90
2022-12-31T13:30:43.139Z,4.90
2022-12-31T13:33:18.699Z,4.90
2022-12-31T13:35:56.477Z,4.90
2022-12-31T13:38:28.609Z,4.90
2022-12-31T13:41:04.209Z,4.90
2022-12-31T13:43:31.134Z,4.90
2022-12-31T13:46:28.206Z,4.90
2022-12-31T13:48:59.879Z,4.90
2022-12-31T13:51:48.170Z,4.90
2022-12-31T13:54:39.365Z,4.90
2022-12-31T13:57:36.097Z,4.90
2022-12-31T14:00:16.808Z,4.90
2022-12-31T14:02:52.777Z,4.80
2022-12-31T14:08:02.918Z,4.80
2022-12-31T14:10:42.764Z,4.90
2022-12-31T14:13:38.812Z,4.90
2022-12-31T14:16:28.633Z,4.90
2022-12-31T14:18:58.747Z,5.00
2022-12-31T14:21:43.794Z,5.00
2022-12-31T14:24:24.261Z,5.00
2022-12-31T14:26:55.950Z,5.00
2022-12-31T14:29:32.968Z,5.10
2022-12-31T14:32:19.824Z,5.10
2022-12-31T14:34:52.542Z,5.10
2022-12-31T14:37:49.387Z,5.10
2022-12-31T14:40:26.553Z,5.10
2022-12-31T14:43:25.197Z,5.10
2022-12-31T14:46:35.583Z,5.20
2022-12-31T14:49:34.566Z,5.20
2022-12-31T14:52:27.761Z,5.20
2022-12-31T14:55:18.597Z,5.20
2022-12-31T15:00:38.938Z,5.10
2022-12-31T15:03:07.277Z,5.10
2022-12-31T15:05:51.257Z,5.10
2022-12-31T15:08:24.391Z,5.10
2022-12-31T15:11:32.160Z,5.10
2022-12-31T15:14:26.599Z,5.10
2022-12-31T15:17:00.172Z,5.10
2022-12-31T15:19:48.907Z,5.10
2022-12-31T15:22:36.758Z,5.10
2022-12-31T15:25:18.481Z,5.10
2022-12-31T15:27:47.402Z,5.10
2022-12-31T15:30:30.557Z,5.10
2022-12-31T15:33:00.787Z,5.20
2022-12-31T15:35:31.839Z,5.20
2022-12-31T15:38:27.465Z,5.20
2022-12-31T15:40:54.452Z,5.20
2022-12-31T15:43:40.706Z,5.20
2022-12-31T15:46:22.014Z,5.20
2022-12-31T15:49:15.401Z,5.20
2022-12-31T15:51:53.281Z,5.30
2022-12-31T15:54:23.213Z,5.30
2022-12-31T15:56:51.519Z,5.30
2022-12-31T15:59:20.751Z,5.30
2022-12-31T16:01:48.286Z,5.40
2022-12-31T16:04:23.937Z,5.40
2022-12-31T16:06:51.582Z,5.40
2022-12-31T16:09:23.491Z,5.50
2022-12-31T16:11:52.317Z,5.50
2022-12-31T16:14:31.578Z,5.60
2022-12-31T16:17:01.213Z,5.70
2022-12-31T16:19:36.694Z,5.70
2022-12-31T16:22:25.777Z,5.70
2022-12-31T16:27:44.903Z,5.70
2022-12-31T16:30:35.994Z,5.70
2022-12-31T16:33:06.364Z,5.70
2022-12-31T16:35:39.095Z,5.70
2022-12-31T16:38:11.735Z,5.70
2022-12-31T16:40:40.581Z,5.70
2022-12-31T16:43:47.474Z,5.80
2022-12-31T16:46:27.632Z,5.80
2022-12-31T16:49:00.382Z,5.70
2022-12-31T16:51:31.813Z,5.70
2022-12-31T16:54:01.533Z,5.70
2022-12-31T16:56:38.403Z,5.70
2022-12-31T16:59:31.955Z,5.70
2022-12-31T17:02:11.738Z,5.70
2022-12-31T17:04:45.929Z,5.80
2022-12-31T17:07:39.993Z,5.70
2022-12-31T17:10:14.816Z,5.70
2022-12-31T17:13:25.375Z,5.70
2022-12-31T17:15:47.183Z,5.70
2022-12-31T17:18:23.037Z,5.70
2022-12-31T17:20:55.088Z,5.70
2022-12-31T17:26:15.166Z,5.60
2022-12-31T17:28:51.778Z,5.70
2022-12-31T17:31:29.671Z,5.70
2022-12-31T17:34:07.060Z,5.70
2022-12-31T17:36:34.127Z,5.70
2022-12-31T17:39:21.473Z,5.70
2022-12-31T17:41:51.591Z,5.70
2022-12-31T17:44:25.391Z,5.70
2022-12-31T17:46:53.179Z,5.70
2022-12-31T17:49:27.290Z,5.70
2022-12-31T17:51:54.344Z,5.70
2022-12-31T17:54:21.318Z,5.70
2022-12-31T17:56:48.647Z,5.70
2022-12-31T17:59:24.565Z,5.70
2022-12-31T18:01:51.772Z,5.70
2022-12-31T18:04:20.830Z,5.70
2022-12-31T18:06:47.794Z,5.70
2022-12-31T18:09:16.454Z,5.70
2022-12-31T18:11:44.295Z,5.70
2022-12-31T18:14:15.251Z,5.70
2022-12-31T18:16:42.173Z,5.70
2022-12-31T18:19:45.616Z,5.70
2022-12-31T18:22:02.950Z,5.70
2022-12-31T18:24:29.899Z,5.70
2022-12-31T18:26:56.821Z,5.70
2022-12-31T18:29:24.001Z,5.70
2022-12-31T18:31:51.306Z,5.70
2022-12-31T18:34:18.790Z,5.80
2022-12-31T18:36:46.364Z,5.80
2022-12-31T18:39:13.484Z,5.80
2022-12-31T18:41:49.088Z,5.80
2022-12-31T18:44:17.396Z,5.80
2022-12-31T18:46:44.355Z,5.80
2022-12-31T18:49:11.467Z,5.80
2022-12-31T18:51:38.479Z,5.80
2022-12-31T18:54:06.849Z,5.80
2022-12-31T18:56:33.804Z,5.90
2022-12-31T18:59:02.553Z,5.90
2022-12-31T19:01:34.879Z,5.90
2022-12-31T19:04:24.986Z,5.90
2022-12-31T19:06:55.198Z,5.90
2022-12-31T19:12:13.324Z,5.90
2022-12-31T19:14:40.583Z,5.90
2022-12-31T19:19:34.918Z,6.00
2022-12-31T19:22:02.772Z,6.00
2022-12-31T19:24:29.892Z,5.90
2022-12-31T19:26:56.929Z,6.00
2022-12-31T19:29:26.279Z,5.90
2022-12-31T19:31:53.711Z,5.90
2022-12-31T19:34:20.729Z,5.90
2022-12-31T19:36:47.728Z,5.90
2022-12-31T19:39:20.230Z,5.90
2022-12-31T19:41:54.701Z,5.90
2022-12-31T19:44:25.375Z,5.90
2022-12-31T19:46:52.478Z,5.90
2022-12-31T19:49:19.767Z,6.00
2022-12-31T19:51:46.721Z,6.00
2022-12-31T19:54:13.855Z,6.00
2022-12-31T19:56:41.074Z,6.00
2022-12-31T19:59:10.484Z,6.10
2022-12-31T20:01:37.879Z,6.10
2022-12-31T20:04:05.179Z,6.00
2022-12-31T20:06:32.251Z,6.10
2022-12-31T20:08:59.273Z,6.10
2022-12-31T20:11:26.532Z,6.00
2022-12-31T20:13:54.174Z,6.10
2022-12-31T20:16:23.974Z,6.10
2022-12-31T20:18:51.253Z,6.10
2022-12-31T20:21:24.514Z,6.10
2022-12-31T20:23:53.175Z,6.10
2022-12-31T20:26:22.542Z,6.10
2022-12-31T20:28:49.580Z,6.10
2022-12-31T20:31:19.568Z,6.10
2022-12-31T20:33:47.048Z,6.20
2022-12-31T20:36:15.747Z,6.20
2022-12-31T20:38:43.073Z,6.20
2022-12-31T20:41:13.174Z,6.30
2022-12-31T20:43:40.289Z,6.30
2022-12-31T20:46:14.848Z,6.30
2022-12-31T20:48:43.731Z,6.30
2022-12-31T20:51:11.124Z,6.40
2022-12-31T20:53:38.394Z,6.30
2022-12-31T20:56:06.864Z,6.30
2022-12-31T20:58:34.377Z,6.40
2022-12-31T21:01:01.910Z,6.40
2022-12-31T21:06:16.244Z,6.40
2022-12-31T21:08:43.778Z,6.50
2022-12-31T21:11:29.582Z,6.50
2022-12-31T21:13:57.976Z,6.50
2022-12-31T21:16:25.800Z,6.50
2022-12-31T21:18:52.847Z,6.60
2022-12-31T21:21:20.163Z,6.60
2022-12-31T21:23:47.370Z,6.60
2022-12-31T21:26:15.006Z,6.60
2022-12-31T21:28:42.194Z,6.70
2022-12-31T21:31:11.774Z,6.70
2022-12-31T21:33:38.823Z,6.70
2022-12-31T21:36:05.947Z,6.70
2022-12-31T21:38:35.594Z,6.80
2022-12-31T21:41:03.868Z,6.80
2022-12-31T21:43:31.103Z,6.80
2022-12-31T21:46:07.890Z,6.80
2022-12-31T21:48:34.862Z,6.90
2022-12-31T21:51:10.113Z,6.90
2022-12-31T21:53:37.729Z,6.90
2022-12-31T21:56:08.731Z,6.90
2022-12-31T21:58:36.433Z,6.90
2022-12-31T22:01:22.092Z,6.90
2022-12-31T22:03:49.249Z,7.00
2022-12-31T22:06:20.753Z,6.90
2022-12-31T22:08:50.414Z,7.00
2022-12-31T22:11:19.244Z,7.00
2022-12-31T22:13:47.098Z,7.10
2022-12-31T22:16:14.893Z,7.10
2022-12-31T22:18:44.221Z,7.10
2022-12-31T22:21:22.852Z,7.10
2022-12-31T22:23:53.253Z,7.10
2022-12-31T22:26:22.606Z,7.10
2022-12-31T22:28:50.034Z,7.10
2022-12-31T22:31:23.233Z,7.10
2022-12-31T22:33:50.542Z,7.20
2022-12-31T22:36:22.599Z,7.20
2022-12-31T22:38:51.008Z,7.20
2022-12-31T22:41:22.117Z,7.20
2022-12-31T22:44:02.292Z,7.20
2022-12-31T22:46:30.469Z,7.20
2022-12-31T22:48:58.848Z,7.20
2022-12-31T22:51:54.760Z,7.10
2022-12-31T22:54:14.436Z,7.10
2022-12-31T22:56:41.634Z,7.10
2022-12-31T22:59:09.326Z,7.10
2022-12-31T23:01:36.587Z,7.10
2022-12-31T23:04:04.218Z,7.10
2022-12-31T23:06:31.283Z,7.00
2022-12-31T23:09:17.300Z,7.10
2022-12-31T23:11:44.291Z,7.10
2022-12-31T23:14:35.313Z,7.00
2022-12-31T23:17:31.236Z,7.00
2022-12-31T23:20:18.591Z,7.00
2022-12-31T23:23:05.556Z,7.00
2022-12-31T23:25:33.969Z,7.00
2022-12-31T23:28:00.955Z,7.00
2022-12-31T23:30:28.296Z,7.00
2022-12-31T23:32:55.578Z,7.10
2022-12-31T23:35:24.257Z,7.10
2022-12-31T23:37:51.257Z,7.00
2022-12-31T23:40:21.553Z,7.10
2022-12-31T23:42:50.100Z,7.10
2022-12-31T23:45:17.321Z,7.10
2022-12-31T23:47:44.267Z,7.20
2022-12-31T23:50:11.197Z,7.20
2022-12-31T23:52:38.173Z,7.20
2022-12-31T23:55:05.430Z,7.20
2022-12-31T23:57:32.373Z,7.30
2022-12-31T23:59:59.684Z,7.20
